createdAt,value
2022-11-28T00:00:28.935Z,54.27
2022-11-28T00:01:28.913Z,54.30
2022-11-28T00:02:29.112Z,54.28
2022-11-28T00:03:28.962Z,54.55
2022-11-28T00:04:28.899Z,54.48
2022-11-28T00:05:28.900Z,53.68
2022-11-28T00:06:28.957Z,53.80
2022-11-28T00:07:28.986Z,53.63
2022-11-28T00:08:28.901Z,53.71
2022-11-28T00:09:28.875Z,54.08
2022-11-28T00:10:28.849Z,54.17
2022-11-28T00:11:28.847Z,54.10
2022-11-28T00:12:28.842Z,53.81
2022-11-28T00:13:28.830Z,53.61
2022-11-28T00:14:28.862Z,53.71
2022-11-28T00:15:28.823Z,54.30
2022-11-28T00:16:28.934Z,54.28
2022-11-28T00:17:28.799Z,54.05
2022-11-28T00:18:28.786Z,54.26
2022-11-28T00:19:28.792Z,54.38
2022-11-28T00:20:28.833Z,55.31
2022-11-28T00:21:28.776Z,54.98
2022-11-28T00:22:28.829Z,54.12
2022-11-28T00:23:28.755Z,53.73
2022-11-28T00:24:28.761Z,53.83
2022-11-28T00:25:28.751Z,54.01
2022-11-28T00:26:28.777Z,55.60
2022-11-28T00:27:28.738Z,54.26
2022-11-28T00:28:28.742Z,54.35
2022-11-28T00:29:28.720Z,55.86
2022-11-28T00:30:28.733Z,56.73
2022-11-28T00:31:28.807Z,54.38
2022-11-28T00:32:28.741Z,54.36
2022-11-28T00:33:28.697Z,54.56
2022-11-28T00:34:28.694Z,54.05
2022-11-28T00:35:28.681Z,53.71
2022-11-28T00:36:28.700Z,53.92
2022-11-28T00:37:28.688Z,54.09
2022-11-28T00:38:28.767Z,54.11
2022-11-28T00:39:28.669Z,54.05
2022-11-28T00:40:28.690Z,54.26
2022-11-28T00:41:28.744Z,54.29
2022-11-28T00:42:28.647Z,54.45
2022-11-28T00:43:28.631Z,54.32
2022-11-28T00:44:28.705Z,54.13
2022-11-28T00:45:28.690Z,54.17
2022-11-28T00:46:28.622Z,54.21
2022-11-28T00:47:28.601Z,54.04
2022-11-28T00:48:28.611Z,54.08
2022-11-28T00:49:28.604Z,56.36
2022-11-28T00:50:28.652Z,54.19
2022-11-28T00:51:28.593Z,54.41
2022-11-28T00:52:28.583Z,57.75
2022-11-28T00:53:28.552Z,54.92
2022-11-28T00:54:28.593Z,54.65
2022-11-28T00:55:28.565Z,54.26
2022-11-28T00:56:28.734Z,54.07
2022-11-28T00:57:28.530Z,55.76
2022-11-28T00:58:28.535Z,54.19
2022-11-28T00:59:28.545Z,54.14
2022-11-28T01:00:28.531Z,54.10
2022-11-28T01:01:28.621Z,53.99
2022-11-28T01:02:28.634Z,53.97
2022-11-28T01:03:28.495Z,54.35
2022-11-28T01:04:28.531Z,54.05
2022-11-28T01:05:28.463Z,53.74
2022-11-28T01:06:28.482Z,53.75
2022-11-28T01:07:28.506Z,55.69
2022-11-28T01:08:28.539Z,54.32
2022-11-28T01:09:28.447Z,54.41
2022-11-28T01:10:28.516Z,54.31
2022-11-28T01:11:28.442Z,54.17
2022-11-28T01:12:28.441Z,54.91
2022-11-28T01:13:28.470Z,54.83
2022-11-28T01:14:28.504Z,54.71
2022-11-28T01:15:28.419Z,54.64
2022-11-28T01:16:28.492Z,55.91
2022-11-28T01:17:28.412Z,54.83
2022-11-28T01:18:28.405Z,54.94
2022-11-28T01:19:28.383Z,54.83
2022-11-28T01:20:28.434Z,54.40
2022-11-28T01:21:28.376Z,54.05
2022-11-28T01:22:28.371Z,54.14
2022-11-28T01:23:28.347Z,54.35
2022-11-28T01:24:28.363Z,54.07
2022-11-28T01:25:28.336Z,54.19
2022-11-28T01:26:28.433Z,54.39
2022-11-28T01:27:28.346Z,54.52
2022-11-28T01:28:28.325Z,54.72
2022-11-28T01:29:28.315Z,54.56
2022-11-28T01:30:28.317Z,54.16
2022-11-28T01:31:28.330Z,53.93
2022-11-28T01:32:28.341Z,54.12
2022-11-28T01:33:28.301Z,55.27
2022-11-28T01:34:28.293Z,55.18
2022-11-28T01:35:28.262Z,55.26
2022-11-28T01:36:28.273Z,54.28
2022-11-28T01:37:28.251Z,53.85
2022-11-28T01:38:28.306Z,54.46
2022-11-28T01:39:28.247Z,54.44
2022-11-28T01:40:28.254Z,54.76
2022-11-28T01:41:28.217Z,54.51
2022-11-28T01:42:28.296Z,54.60
2022-11-28T01:43:28.205Z,54.94
2022-11-28T01:44:28.278Z,55.04
2022-11-28T01:45:28.195Z,55.13
2022-11-28T01:46:28.296Z,54.07
2022-11-28T01:47:28.176Z,54.25
2022-11-28T01:48:28.179Z,54.64
2022-11-28T01:49:28.164Z,54.51
2022-11-28T01:50:28.222Z,54.72
2022-11-28T01:51:28.151Z,55.02
2022-11-28T01:52:28.132Z,54.67
2022-11-28T01:53:28.161Z,55.70
2022-11-28T01:54:28.144Z,56.52
2022-11-28T01:55:28.121Z,58.72
2022-11-28T01:56:28.175Z,53.50
2022-11-28T01:57:28.141Z,53.59
2022-11-28T01:58:28.175Z,54.02
2022-11-28T01:59:28.123Z,54.40
2022-11-28T02:00:28.134Z,54.54
2022-11-28T02:01:28.163Z,54.63
2022-11-28T02:02:28.580Z,54.83
2022-11-28T02:03:28.101Z,55.39
2022-11-28T02:04:28.097Z,54.68
2022-11-28T02:05:28.056Z,54.59
2022-11-28T02:06:28.083Z,54.44
2022-11-28T02:07:28.089Z,54.51
2022-11-28T02:08:28.117Z,54.46
2022-11-28T02:09:28.050Z,54.71
2022-11-28T02:10:28.032Z,54.28
2022-11-28T02:11:28.024Z,54.22
2022-11-28T02:12:28.054Z,54.14
2022-11-28T02:13:28.008Z,54.20
2022-11-28T02:14:28.111Z,54.28
2022-11-28T02:15:28.005Z,54.37
2022-11-28T02:16:28.075Z,54.70
2022-11-28T02:17:27.973Z,54.49
2022-11-28T02:18:27.977Z,54.56
2022-11-28T02:19:27.954Z,55.97
2022-11-28T02:20:27.971Z,54.58
2022-11-28T02:21:27.957Z,54.87
2022-11-28T02:22:27.955Z,54.99
2022-11-28T02:23:27.949Z,54.43
2022-11-28T02:24:27.919Z,54.27
2022-11-28T02:25:27.921Z,54.50
2022-11-28T02:26:27.956Z,54.42
2022-11-28T02:27:27.902Z,54.34
2022-11-28T02:28:27.883Z,54.41
2022-11-28T02:29:27.965Z,54.68
2022-11-28T02:30:27.952Z,60.99
2022-11-28T02:31:27.964Z,66.37
2022-11-28T02:32:27.913Z,56.66
2022-11-28T02:33:27.874Z,54.35
2022-11-28T02:34:27.854Z,54.39
2022-11-28T02:35:27.847Z,54.29
2022-11-28T02:36:27.837Z,54.43
2022-11-28T02:37:27.833Z,57.71
2022-11-28T02:38:27.863Z,61.59
2022-11-28T02:39:27.806Z,54.79
2022-11-28T02:40:27.809Z,54.92
2022-11-28T02:41:27.805Z,54.52
2022-11-28T02:42:27.815Z,54.44
2022-11-28T02:43:27.808Z,64.07
2022-11-28T02:44:27.816Z,55.73
2022-11-28T02:45:27.863Z,55.51
2022-11-28T02:46:27.891Z,54.36
2022-11-28T02:47:27.770Z,54.41
2022-11-28T02:48:27.846Z,54.46
2022-11-28T02:49:27.763Z,54.69
2022-11-28T02:50:27.773Z,55.35
2022-11-28T02:51:27.730Z,54.58
2022-11-28T02:52:27.728Z,54.36
2022-11-28T02:53:27.740Z,53.91
2022-11-28T02:54:27.714Z,53.88
2022-11-28T02:55:27.738Z,54.12
2022-11-28T02:56:27.814Z,54.24
2022-11-28T02:57:27.723Z,53.99
2022-11-28T02:58:27.691Z,53.93
2022-11-28T02:59:27.670Z,53.61
2022-11-28T03:00:27.761Z,53.52
2022-11-28T03:01:27.810Z,53.56
2022-11-28T03:02:27.845Z,53.63
2022-11-28T03:03:27.669Z,54.27
2022-11-28T03:04:27.668Z,54.35
2022-11-28T03:05:27.645Z,56.40
2022-11-28T03:06:27.664Z,54.69
2022-11-28T03:07:27.639Z,55.42
2022-11-28T03:08:27.905Z,54.20
2022-11-28T03:09:27.628Z,54.75
2022-11-28T03:10:27.615Z,54.66
2022-11-28T03:11:27.581Z,54.62
2022-11-28T03:12:27.582Z,54.34
2022-11-28T03:13:27.571Z,54.82
2022-11-28T03:14:27.649Z,54.68
2022-11-28T03:15:27.571Z,54.47
2022-11-28T03:16:27.666Z,54.63
2022-11-28T03:17:27.564Z,54.83
2022-11-28T03:18:27.631Z,56.45
2022-11-28T03:19:27.548Z,53.95
2022-11-28T03:20:27.608Z,54.56
2022-11-28T03:21:27.541Z,54.66
2022-11-28T03:22:27.524Z,54.50
2022-11-28T03:23:27.527Z,54.45
2022-11-28T03:24:36.438Z,54.31
2022-11-28T03:25:27.500Z,54.30
2022-11-28T03:26:27.552Z,54.59
2022-11-28T03:27:27.485Z,54.55
2022-11-28T03:28:27.494Z,54.43
2022-11-28T03:29:27.510Z,54.46
2022-11-28T03:30:27.490Z,54.70
2022-11-28T03:31:27.515Z,55.30
2022-11-28T03:32:27.523Z,56.32
2022-11-28T03:33:27.441Z,55.04
2022-11-28T03:34:27.489Z,54.69
2022-11-28T03:35:27.441Z,54.93
2022-11-28T03:36:27.427Z,54.57
2022-11-28T03:37:27.402Z,54.34
2022-11-28T03:38:27.493Z,54.23
2022-11-28T03:39:27.407Z,54.37
2022-11-28T03:40:27.406Z,54.38
2022-11-28T03:41:27.400Z,54.71
2022-11-28T03:42:27.377Z,54.39
2022-11-28T03:43:27.374Z,53.75
2022-11-28T03:44:27.421Z,54.39
2022-11-28T03:45:27.369Z,54.26
2022-11-28T03:46:27.423Z,54.56
2022-11-28T03:47:27.339Z,54.48
2022-11-28T03:48:27.323Z,54.36
2022-11-28T03:49:27.315Z,55.06
2022-11-28T03:50:27.423Z,55.14
2022-11-28T03:51:27.322Z,55.67
2022-11-28T03:52:27.340Z,54.61
2022-11-28T03:53:27.306Z,54.74
2022-11-28T03:54:27.301Z,54.63
2022-11-28T03:55:27.386Z,54.45
2022-11-28T03:56:27.356Z,54.36
2022-11-28T03:57:27.296Z,54.88
2022-11-28T03:58:27.285Z,54.42
2022-11-28T03:59:27.293Z,56.64
2022-11-28T04:00:27.249Z,54.90
2022-11-28T04:01:27.289Z,54.53
2022-11-28T04:02:27.304Z,54.61
2022-11-28T04:03:27.349Z,54.71
2022-11-28T04:04:27.229Z,54.45
2022-11-28T04:05:27.229Z,54.36
2022-11-28T04:06:27.315Z,54.48
2022-11-28T04:07:27.352Z,54.84
2022-11-28T04:08:27.548Z,55.03
2022-11-28T04:09:27.201Z,55.01
2022-11-28T04:10:27.185Z,54.73
2022-11-28T04:11:27.204Z,54.83
2022-11-28T04:12:27.192Z,54.51
2022-11-28T04:13:27.176Z,54.24
2022-11-28T04:14:27.215Z,54.46
2022-11-28T04:15:27.155Z,54.77
2022-11-28T04:16:27.223Z,54.53
2022-11-28T04:17:27.166Z,54.80
2022-11-28T04:18:27.144Z,55.32
2022-11-28T04:19:27.131Z,55.14
2022-11-28T04:20:27.193Z,54.85
2022-11-28T04:21:27.124Z,56.99
2022-11-28T04:22:27.154Z,56.51
2022-11-28T04:23:27.096Z,54.62
2022-11-28T04:24:27.103Z,54.62
2022-11-28T04:25:27.099Z,54.81
2022-11-28T04:26:27.152Z,56.53
2022-11-28T04:27:27.072Z,54.52
2022-11-28T04:28:27.050Z,54.78
2022-11-28T04:29:27.067Z,54.99
2022-11-28T04:30:27.029Z,55.13
2022-11-28T04:31:27.121Z,55.99
2022-11-28T04:32:27.082Z,54.75
2022-11-28T04:33:27.046Z,57.57
2022-11-28T04:34:27.091Z,55.57
2022-11-28T04:35:27.016Z,55.01
2022-11-28T04:36:27.026Z,54.66
2022-11-28T04:37:27.003Z,55.31
2022-11-28T04:38:27.082Z,59.00
2022-11-28T04:39:26.990Z,56.03
2022-11-28T04:40:26.985Z,55.37
2022-11-28T04:41:26.992Z,56.99
2022-11-28T04:42:26.967Z,56.67
2022-11-28T04:43:26.942Z,56.41
2022-11-28T04:44:27.023Z,55.31
2022-11-28T04:45:26.995Z,55.23
2022-11-28T04:46:27.103Z,54.97
2022-11-28T04:47:26.934Z,54.87
2022-11-28T04:48:31.293Z,56.53
2022-11-28T04:49:27.977Z,54.92
2022-11-28T04:50:26.918Z,55.19
2022-11-28T04:51:26.910Z,59.13
2022-11-28T04:52:26.914Z,55.35
2022-11-28T04:53:26.893Z,56.12
2022-11-28T04:54:26.935Z,55.02
2022-11-28T04:55:26.938Z,54.98
2022-11-28T04:56:26.870Z,56.82
2022-11-28T04:57:26.857Z,55.39
2022-11-28T04:58:26.872Z,56.68
2022-11-28T04:59:26.833Z,55.48
2022-11-28T05:00:26.847Z,54.90
2022-11-28T05:01:26.979Z,56.99
2022-11-28T05:02:26.886Z,56.90
2022-11-28T05:03:26.816Z,54.90
2022-11-28T05:04:26.822Z,56.37
2022-11-28T05:05:26.845Z,56.85
2022-11-28T05:06:26.781Z,56.86
2022-11-28T05:07:26.902Z,55.81
2022-11-28T05:08:26.780Z,55.85
2022-11-28T05:09:26.784Z,54.38
2022-11-28T05:10:47.818Z,54.60
2022-11-28T05:11:26.771Z,54.37
2022-11-28T05:12:26.759Z,54.58
2022-11-28T05:13:27.048Z,55.13
2022-11-28T05:14:26.734Z,55.03
2022-11-28T05:15:26.742Z,56.64
2022-11-28T05:16:26.795Z,55.19
2022-11-28T05:17:26.709Z,55.16
2022-11-28T05:18:26.716Z,57.63
2022-11-28T05:19:26.777Z,57.06
2022-11-28T05:20:26.723Z,57.06
2022-11-28T05:21:26.707Z,56.30
2022-11-28T05:22:26.693Z,56.77
2022-11-28T05:23:26.674Z,57.07
2022-11-28T05:24:31.955Z,56.70
2022-11-28T05:25:27.723Z,56.38
2022-11-28T05:26:26.700Z,55.87
2022-11-28T05:27:26.661Z,57.93
2022-11-28T05:28:26.663Z,57.85
2022-11-28T05:29:26.612Z,56.70
2022-11-28T05:30:26.657Z,57.55
2022-11-28T05:31:26.736Z,58.14
2022-11-28T05:32:26.616Z,56.39
2022-11-28T05:33:26.626Z,56.83
2022-11-28T05:34:26.650Z,56.80
2022-11-28T05:35:26.583Z,55.05
2022-11-28T05:36:26.610Z,54.69
2022-11-28T05:37:26.642Z,56.13
2022-11-28T05:38:26.587Z,56.77
2022-11-28T05:39:26.573Z,57.33
2022-11-28T05:40:26.549Z,55.51
2022-11-28T05:41:26.552Z,57.05
2022-11-28T05:42:26.592Z,55.04
2022-11-28T05:43:26.604Z,56.24
2022-11-28T05:44:27.140Z,59.53
2022-11-28T05:45:26.600Z,57.23
2022-11-28T05:46:26.528Z,58.51
2022-11-28T05:47:26.508Z,56.76
2022-11-28T05:48:26.502Z,55.74
2022-11-28T05:49:26.549Z,56.57
2022-11-28T05:50:26.479Z,60.36
2022-11-28T05:51:26.504Z,56.69
2022-11-28T05:52:26.482Z,57.58
2022-11-28T05:53:26.447Z,55.43
2022-11-28T05:54:26.458Z,55.47
2022-11-28T05:55:26.486Z,58.61
2022-11-28T05:56:26.466Z,58.42
2022-11-28T05:57:26.444Z,56.91
2022-11-28T05:58:26.489Z,58.39
2022-11-28T05:59:26.408Z,56.89
2022-11-28T06:00:26.431Z,58.40
2022-11-28T06:01:26.469Z,56.84
2022-11-28T06:02:26.444Z,56.76
2022-11-28T06:03:26.402Z,57.25
2022-11-28T06:04:26.459Z,56.17
2022-11-28T06:05:41.735Z,57.44
2022-11-28T06:06:27.459Z,55.38
2022-11-28T06:07:26.416Z,55.79
2022-11-28T06:08:26.394Z,58.24
2022-11-28T06:09:26.422Z,58.99
2022-11-28T06:10:26.345Z,55.59
2022-11-28T06:11:26.343Z,59.59
2022-11-28T06:12:26.392Z,57.99
2022-11-28T06:13:26.333Z,59.31
2022-11-28T06:14:26.384Z,56.34
2022-11-28T06:15:26.327Z,57.65
2022-11-28T06:16:26.340Z,56.46
2022-11-28T06:17:26.297Z,58.75
2022-11-28T06:18:26.577Z,61.26
2022-11-28T06:19:26.283Z,57.13
2022-11-28T06:20:26.259Z,57.18
2022-11-28T06:21:26.277Z,61.24
2022-11-28T06:22:26.264Z,56.74
2022-11-28T06:23:26.272Z,57.60
2022-11-28T06:24:26.318Z,58.58
2022-11-28T06:25:26.298Z,59.86
2022-11-28T06:26:26.229Z,60.06
2022-11-28T06:27:26.246Z,59.33
2022-11-28T06:28:26.235Z,61.63
2022-11-28T06:29:26.220Z,59.19
2022-11-28T06:30:26.307Z,60.94
2022-11-28T06:31:26.285Z,59.80
2022-11-28T06:32:26.217Z,57.57
2022-11-28T06:33:26.196Z,59.26
2022-11-28T06:34:26.226Z,59.07
2022-11-28T06:35:26.190Z,60.43
2022-11-28T06:36:26.331Z,62.94
2022-11-28T06:37:26.162Z,60.15
2022-11-28T06:38:26.156Z,62.02
2022-11-28T06:39:26.140Z,59.72
2022-11-28T06:40:26.146Z,63.16
2022-11-28T06:41:26.139Z,62.99
2022-11-28T06:42:26.172Z,67.65
2022-11-28T06:43:26.136Z,66.88
2022-11-28T06:44:26.156Z,69.04
2022-11-28T06:45:26.155Z,60.38
2022-11-28T06:46:26.227Z,60.33
2022-11-28T06:47:26.095Z,59.47
2022-11-28T06:48:26.135Z,60.01
2022-11-28T06:49:26.110Z,62.21
2022-11-28T06:50:26.075Z,60.06
2022-11-28T06:51:26.066Z,60.73
2022-11-28T06:52:26.064Z,61.24
2022-11-28T06:53:31.236Z,59.74
2022-11-28T06:54:27.097Z,61.35
2022-11-28T06:55:26.035Z,59.72
2022-11-28T06:56:26.063Z,59.20
2022-11-28T06:57:26.030Z,60.92
2022-11-28T06:58:26.038Z,59.49
2022-11-28T06:59:26.016Z,60.98
2022-11-28T07:00:26.039Z,65.72
2022-11-28T07:01:26.032Z,66.97
2022-11-28T07:02:26.161Z,65.50
2022-11-28T07:03:25.998Z,64.57
2022-11-28T07:04:25.990Z,63.14
2022-11-28T07:05:25.983Z,70.26
2022-11-28T07:06:26.016Z,62.34
2022-11-28T07:07:26.005Z,61.77
2022-11-28T07:08:26.053Z,62.13
2022-11-28T07:09:25.960Z,60.17
2022-11-28T07:10:25.951Z,58.39
2022-11-28T07:11:25.932Z,57.64
2022-11-28T07:12:25.969Z,58.79
2022-11-28T07:13:25.937Z,61.75
2022-11-28T07:14:25.925Z,60.46
2022-11-28T07:15:25.933Z,59.62
2022-11-28T07:16:25.995Z,59.15
2022-11-28T07:17:25.891Z,59.94
2022-11-28T07:18:25.985Z,58.37
2022-11-28T07:19:25.900Z,60.57
2022-11-28T07:20:25.875Z,59.74
2022-11-28T07:21:25.872Z,59.37
2022-11-28T07:22:25.857Z,58.08
2022-11-28T07:23:25.856Z,59.50
2022-11-28T07:24:25.977Z,60.52
2022-11-28T07:25:25.837Z,60.65
2022-11-28T07:26:25.833Z,60.01
2022-11-28T07:27:25.816Z,61.64
2022-11-28T07:28:25.820Z,67.41
2022-11-28T07:29:25.809Z,66.51
2022-11-28T07:30:25.852Z,70.29
2022-11-28T07:31:25.850Z,61.14
2022-11-28T07:32:25.781Z,59.66
2022-11-28T07:33:25.782Z,58.61
2022-11-28T07:34:25.853Z,58.85
2022-11-28T07:35:25.783Z,58.49
2022-11-28T07:36:25.804Z,57.80
2022-11-28T07:37:25.766Z,59.07
2022-11-28T07:38:25.769Z,60.52
2022-11-28T07:39:25.751Z,67.58
2022-11-28T07:40:25.744Z,69.65
2022-11-28T07:41:27.052Z,70.68
2022-11-28T07:42:25.784Z,71.62
2022-11-28T07:43:25.721Z,72.58
2022-11-28T07:44:25.728Z,73.33
2022-11-28T07:45:37.054Z,70.00
2022-11-28T07:46:26.751Z,70.33
2022-11-28T07:47:25.691Z,70.29
2022-11-28T07:48:25.741Z,70.82
2022-11-28T07:49:25.656Z,72.02
2022-11-28T07:50:25.677Z,71.25
2022-11-28T07:51:25.668Z,64.54
2022-11-28T07:52:25.672Z,65.62
2022-11-28T07:53:25.637Z,64.66
2022-11-28T07:54:25.678Z,62.25
2022-11-28T07:55:25.619Z,74.38
2022-11-28T07:56:25.632Z,68.11
2022-11-28T07:57:25.631Z,62.40
2022-11-28T07:58:25.622Z,62.75
2022-11-28T07:59:25.598Z,62.92
2022-11-28T08:00:25.737Z,62.58
2022-11-28T08:01:25.572Z,62.58
2022-11-28T08:02:25.623Z,59.95
2022-11-28T08:03:25.583Z,61.11
2022-11-28T08:04:25.589Z,65.21
2022-11-28T08:05:25.565Z,61.96
2022-11-28T08:06:25.599Z,62.82
2022-11-28T08:07:25.575Z,63.20
2022-11-28T08:08:25.541Z,59.18
2022-11-28T08:09:25.525Z,59.41
2022-11-28T08:10:25.593Z,59.16
2022-11-28T08:11:25.515Z,60.44
2022-11-28T08:12:25.577Z,60.03
2022-11-28T08:13:25.502Z,57.73
2022-11-28T08:14:25.490Z,58.40
2022-11-28T08:15:25.479Z,60.92
2022-11-28T08:16:25.528Z,59.42
2022-11-28T08:17:25.472Z,57.72
2022-11-28T08:18:25.501Z,60.06
2022-11-28T08:19:26.570Z,59.91
2022-11-28T08:20:25.515Z,58.33
2022-11-28T08:21:25.445Z,57.30
2022-11-28T08:22:25.427Z,58.87
2022-11-28T08:23:25.438Z,60.05
2022-11-28T08:24:25.584Z,58.84
2022-11-28T08:25:25.427Z,58.14
2022-11-28T08:26:28.965Z,58.39
2022-11-28T08:27:26.401Z,58.73
2022-11-28T08:28:25.412Z,59.54
2022-11-28T08:29:25.395Z,59.12
2022-11-28T08:30:25.432Z,57.91
2022-11-28T08:31:25.432Z,58.23
2022-11-28T08:32:25.400Z,58.89
2022-11-28T08:33:25.358Z,58.92
2022-11-28T08:34:25.345Z,57.85
2022-11-28T08:35:25.346Z,58.56
2022-11-28T08:36:25.406Z,58.12
2022-11-28T08:37:25.343Z,57.62
2022-11-28T08:38:25.327Z,58.43
2022-11-28T08:39:25.654Z,58.24
2022-11-28T08:40:25.307Z,58.43
2022-11-28T08:41:25.300Z,59.34
2022-11-28T08:42:25.368Z,61.26
2022-11-28T08:43:25.286Z,58.28
2022-11-28T08:44:25.275Z,58.84
2022-11-28T08:45:25.278Z,61.19
2022-11-28T08:46:25.299Z,59.48
2022-11-28T08:47:25.259Z,56.47
2022-11-28T08:48:25.309Z,58.67
2022-11-28T08:49:25.249Z,58.66
2022-11-28T08:50:25.270Z,61.33
2022-11-28T08:51:25.252Z,58.07
2022-11-28T08:52:25.243Z,60.20
2022-11-28T08:53:25.217Z,59.41
2022-11-28T08:54:25.279Z,60.50
2022-11-28T08:55:32.109Z,60.76
2022-11-28T08:56:26.215Z,60.47
2022-11-28T08:57:25.196Z,61.93
2022-11-28T08:58:25.183Z,61.86
2022-11-28T08:59:25.201Z,59.05
2022-11-28T09:00:25.232Z,61.67
2022-11-28T09:01:25.270Z,57.97
2022-11-28T09:02:26.205Z,59.88
2022-11-28T09:03:25.178Z,60.44
2022-11-28T09:04:25.183Z,62.24
2022-11-28T09:05:25.140Z,59.65
2022-11-28T09:06:25.190Z,59.56
2022-11-28T09:07:25.220Z,59.85
2022-11-28T09:08:25.108Z,57.34
2022-11-28T09:09:27.085Z,61.63
2022-11-28T09:10:25.118Z,65.04
2022-11-28T09:11:25.081Z,65.75
2022-11-28T09:12:25.102Z,64.76
2022-11-28T09:13:25.082Z,64.18
2022-11-28T09:14:25.080Z,61.79
2022-11-28T09:15:25.058Z,65.36
2022-11-28T09:16:25.128Z,66.37
2022-11-28T09:17:25.065Z,62.64
2022-11-28T09:18:25.087Z,62.40
2022-11-28T09:19:25.056Z,59.76
2022-11-28T09:20:25.040Z,58.68
2022-11-28T09:21:25.029Z,59.50
2022-11-28T09:22:25.018Z,58.73
2022-11-28T09:23:25.023Z,61.83
2022-11-28T09:24:25.041Z,59.43
2022-11-28T09:25:24.987Z,59.97
2022-11-28T09:26:24.983Z,59.74
2022-11-28T09:27:24.979Z,59.30
2022-11-28T09:28:24.983Z,59.53
2022-11-28T09:29:24.970Z,60.67
2022-11-28T09:30:25.064Z,58.50
2022-11-28T09:31:25.037Z,61.05
2022-11-28T09:32:24.968Z,61.47
2022-11-28T09:33:24.934Z,61.09
2022-11-28T09:34:24.948Z,60.97
2022-11-28T09:35:24.924Z,60.17
2022-11-28T09:36:24.967Z,62.24
2022-11-28T09:37:24.912Z,61.63
2022-11-28T09:38:24.916Z,60.85
2022-11-28T09:39:24.895Z,61.13
2022-11-28T09:40:24.889Z,59.58
2022-11-28T09:41:24.878Z,60.88
2022-11-28T09:42:24.936Z,61.74
2022-11-28T09:43:24.867Z,63.14
2022-11-28T09:44:24.866Z,59.99
2022-11-28T09:45:24.838Z,58.32
2022-11-28T09:46:24.931Z,59.69
2022-11-28T09:47:24.865Z,57.87
2022-11-28T09:48:24.902Z,60.14
2022-11-28T09:49:24.825Z,62.30
2022-11-28T09:50:24.856Z,64.39
2022-11-28T09:51:24.801Z,65.13
2022-11-28T09:52:24.849Z,63.67
2022-11-28T09:53:24.811Z,65.41
2022-11-28T09:54:24.875Z,65.93
2022-11-28T09:55:24.775Z,59.62
2022-11-28T09:56:24.772Z,65.83
2022-11-28T09:57:24.768Z,90.89
2022-11-28T09:58:24.828Z,90.47
2022-11-28T09:59:24.763Z,90.71
2022-11-28T10:00:24.807Z,90.22
2022-11-28T10:01:24.733Z,84.68
2022-11-28T10:02:24.733Z,87.18
2022-11-28T10:03:24.792Z,85.56
2022-11-28T10:04:24.769Z,83.60
2022-11-28T10:05:24.723Z,84.98
2022-11-28T10:06:24.765Z,85.02
2022-11-28T10:07:24.745Z,83.25
2022-11-28T10:08:24.699Z,84.25
2022-11-28T10:09:24.691Z,84.88
2022-11-28T10:10:24.677Z,84.23
2022-11-28T10:11:24.659Z,83.57
2022-11-28T10:12:24.696Z,83.74
2022-11-28T10:13:27.396Z,79.10
2022-11-28T10:14:25.671Z,85.90
2022-11-28T10:15:24.655Z,80.65
2022-11-28T10:16:24.723Z,59.43
2022-11-28T10:17:24.630Z,57.10
2022-11-28T10:18:24.680Z,59.10
2022-11-28T10:19:46.598Z,57.62
2022-11-28T10:20:25.609Z,64.37
2022-11-28T10:21:24.594Z,77.02
2022-11-28T10:22:24.603Z,87.62
2022-11-28T10:23:24.582Z,86.76
2022-11-28T10:24:24.625Z,85.96
2022-11-28T10:25:24.573Z,87.47
2022-11-28T10:26:24.569Z,83.47
2022-11-28T10:27:27.038Z,59.78
2022-11-28T10:28:24.530Z,65.83
2022-11-28T10:29:24.550Z,62.25
2022-11-28T10:30:24.637Z,64.61
2022-11-28T10:31:24.555Z,62.88
2022-11-28T10:32:24.535Z,62.43
2022-11-28T10:33:24.526Z,63.32
2022-11-28T10:34:24.539Z,64.02
2022-11-28T10:35:28.281Z,61.71
2022-11-28T10:36:24.552Z,60.61
2022-11-28T10:37:24.507Z,62.23
2022-11-28T10:38:24.486Z,62.44
2022-11-28T10:39:24.485Z,63.48
2022-11-28T10:40:24.461Z,58.50
2022-11-28T10:41:24.477Z,59.25
2022-11-28T10:42:24.526Z,60.24
2022-11-28T10:43:24.486Z,60.58
2022-11-28T10:44:24.484Z,58.36
2022-11-28T10:45:24.465Z,59.14
2022-11-28T10:46:24.477Z,60.43
2022-11-28T10:47:24.460Z,60.62
2022-11-28T10:48:40.828Z,65.88
2022-11-28T10:49:25.416Z,68.40
2022-11-28T10:50:29.305Z,64.23
2022-11-28T10:51:25.387Z,58.75
2022-11-28T10:52:24.369Z,59.24
2022-11-28T10:53:24.357Z,58.92
2022-11-28T10:54:24.431Z,58.37
2022-11-28T10:55:24.370Z,59.81
2022-11-28T10:56:24.338Z,58.70
2022-11-28T10:57:24.350Z,60.22
2022-11-28T10:58:24.351Z,60.32
2022-11-28T10:59:24.337Z,65.47
2022-11-28T11:00:24.389Z,67.28
2022-11-28T11:01:24.390Z,62.72
2022-11-28T11:02:24.306Z,61.54
2022-11-28T11:03:24.314Z,60.62
2022-11-28T11:04:24.376Z,60.20
2022-11-28T11:05:24.322Z,59.18
2022-11-28T11:06:24.316Z,59.00
2022-11-28T11:07:29.272Z,59.32
2022-11-28T11:08:25.387Z,57.87
2022-11-28T11:09:24.278Z,59.73
2022-11-28T11:10:24.265Z,60.78
2022-11-28T11:11:24.274Z,66.45
2022-11-28T11:12:24.288Z,63.98
2022-11-28T11:13:24.246Z,61.57
2022-11-28T11:14:24.222Z,60.75
2022-11-28T11:15:24.232Z,60.23
2022-11-28T11:16:24.294Z,58.01
2022-11-28T11:17:24.215Z,58.22
2022-11-28T11:18:24.243Z,56.09
2022-11-28T11:19:24.227Z,57.55
2022-11-28T11:20:24.197Z,56.79
2022-11-28T11:21:24.183Z,57.19
2022-11-28T11:22:24.179Z,59.68
2022-11-28T11:23:24.175Z,58.12
2022-11-28T11:24:24.252Z,57.92
2022-11-28T11:25:24.170Z,59.63
2022-11-28T11:26:24.151Z,58.87
2022-11-28T11:27:24.147Z,59.33
2022-11-28T11:28:24.145Z,59.70
2022-11-28T11:29:24.141Z,60.83
2022-11-28T11:30:25.288Z,58.36
2022-11-28T11:31:24.191Z,60.64
2022-11-28T11:32:24.102Z,60.87
2022-11-28T11:33:24.115Z,59.43
2022-11-28T11:34:24.095Z,59.81
2022-11-28T11:35:24.077Z,61.54
2022-11-28T11:36:24.191Z,58.44
2022-11-28T11:37:24.078Z,58.66
2022-11-28T11:38:24.096Z,57.94
2022-11-28T11:39:24.047Z,59.16
2022-11-28T11:40:24.079Z,56.97
2022-11-28T11:41:24.060Z,58.67
2022-11-28T11:42:24.093Z,58.03
2022-11-28T11:43:24.020Z,60.82
2022-11-28T11:44:24.014Z,60.07
2022-11-28T11:45:24.000Z,59.83
2022-11-28T11:46:24.077Z,60.75
2022-11-28T11:47:23.973Z,58.07
2022-11-28T11:48:24.063Z,60.57
2022-11-28T11:49:23.975Z,61.48
2022-11-28T11:50:23.987Z,59.56
2022-11-28T11:51:23.970Z,58.65
2022-11-28T11:52:23.949Z,59.57
2022-11-28T11:53:23.945Z,60.97
2022-11-28T11:54:23.992Z,60.01
2022-11-28T11:55:23.942Z,62.66
2022-11-28T11:56:23.920Z,59.19
2022-11-28T11:57:36.906Z,59.01
2022-11-28T11:58:24.921Z,60.03
2022-11-28T11:59:23.922Z,56.06
2022-11-28T12:00:23.945Z,59.21
2022-11-28T12:01:23.884Z,61.45
2022-11-28T12:02:23.907Z,59.76
2022-11-28T12:03:23.980Z,60.21
2022-11-28T12:04:44.702Z,59.48
2022-11-28T12:05:24.908Z,59.05
2022-11-28T12:06:23.853Z,58.05
2022-11-28T12:07:23.858Z,58.54
2022-11-28T12:08:23.830Z,59.98
2022-11-28T12:09:23.856Z,61.68
2022-11-28T12:10:23.851Z,60.53
2022-11-28T12:11:23.884Z,60.47
2022-11-28T12:12:23.844Z,60.42
2022-11-28T12:13:23.824Z,59.78
2022-11-28T12:14:23.791Z,59.15
2022-11-28T12:15:23.823Z,64.59
2022-11-28T12:16:23.896Z,66.89
2022-11-28T12:17:47.758Z,60.70
2022-11-28T12:18:24.795Z,62.32
2022-11-28T12:19:23.768Z,61.19
2022-11-28T12:20:23.789Z,59.18
2022-11-28T12:21:23.781Z,60.24
2022-11-28T12:22:23.768Z,58.13
2022-11-28T12:23:23.781Z,59.95
2022-11-28T12:24:23.787Z,59.47
2022-11-28T12:25:23.736Z,58.07
2022-11-28T12:26:23.717Z,59.58
2022-11-28T12:27:23.735Z,59.22
2022-11-28T12:28:23.692Z,61.44
2022-11-28T12:29:23.722Z,60.91
2022-11-28T12:30:23.677Z,60.68
2022-11-28T12:31:23.758Z,61.41
2022-11-28T12:32:23.670Z,58.99
2022-11-28T12:33:23.677Z,60.24
2022-11-28T12:34:23.688Z,57.45
2022-11-28T12:35:23.711Z,58.76
2022-11-28T12:36:23.668Z,60.77
2022-11-28T12:37:33.086Z,58.95
2022-11-28T12:38:24.644Z,62.47
2022-11-28T12:39:23.644Z,60.34
2022-11-28T12:40:23.612Z,60.01
2022-11-28T12:41:29.128Z,60.75
2022-11-28T12:42:24.621Z,57.01
2022-11-28T12:43:23.625Z,58.12
2022-11-28T12:44:24.623Z,58.44
2022-11-28T12:45:23.607Z,58.71
2022-11-28T12:46:23.598Z,57.30
2022-11-28T12:47:23.679Z,61.50
2022-11-28T12:48:23.584Z,59.09
2022-11-28T12:49:23.566Z,61.40
2022-11-28T12:50:23.555Z,60.81
2022-11-28T12:51:23.583Z,58.35
2022-11-28T12:52:23.559Z,60.69